createdAt,value
2023-01-17T00:01:33.412Z,14.30
2023-01-17T00:04:18.814Z,15.10
2023-01-17T00:07:04.400Z,16.50
2023-01-17T00:09:50.976Z,17.10
2023-01-17T00:12:18.532Z,17.80
2023-01-17T00:14:47.065Z,16.50
2023-01-17T00:17:14.666Z,17.50
2023-01-17T00:19:59.996Z,14.90
2023-01-17T00:22:47.200Z,14.30
2023-01-17T00:25:41.461Z,14.60
2023-01-17T00:28:08.430Z,12.20
2023-01-17T00:30:35.209Z,13.40
2023-01-17T00:33:01.930Z,11.80
2023-01-17T00:35:29.538Z,12.80
2023-01-17T00:38:07.339Z,14.70
2023-01-17T00:40:34.900Z,15.20
2023-01-17T00:43:20.991Z,14.60
2023-01-17T00:46:06.327Z,14.40
2023-01-17T00:48:51.752Z,13.80
2023-01-17T00:51:39.483Z,12.00
2023-01-17T00:54:25.429Z,10.70
2023-01-17T00:57:10.862Z,10.30
2023-01-17T00:59:56.282Z,10.50
2023-01-17T01:02:42.258Z,9.70
2023-01-17T01:05:28.237Z,9.40
2023-01-17T01:08:13.573Z,9.20
2023-01-17T01:10:59.092Z,8.50
2023-01-17T01:13:44.852Z,8.60
2023-01-17T01:16:30.226Z,8.20
2023-01-17T01:19:16.134Z,8.10
2023-01-17T01:22:01.465Z,8.50
2023-01-17T01:24:46.742Z,8.50
2023-01-17T01:27:32.085Z,8.70
2023-01-17T01:30:17.433Z,8.80
2023-01-17T01:33:02.887Z,10.30
2023-01-17T01:35:29.763Z,9.30
2023-01-17T01:37:56.617Z,10.60
2023-01-17T01:40:23.469Z,14.60
2023-01-17T01:42:54.879Z,13.60
2023-01-17T01:45:32.245Z,12.20
2023-01-17T01:48:48.475Z,11.70
2023-01-17T01:51:19.160Z,13.80
2023-01-17T01:53:47.383Z,14.40
2023-01-17T01:56:14.408Z,12.50
2023-01-17T01:58:43.417Z,11.90
2023-01-17T02:01:11.328Z,10.60
2023-01-17T02:03:38.833Z,11.50
2023-01-17T02:10:55.395Z,10.80
2023-01-17T02:13:22.323Z,13.20
2023-01-17T02:15:56.010Z,11.70
2023-01-17T02:18:36.501Z,11.20
2023-01-17T02:21:25.228Z,14.30
2023-01-17T02:24:16.273Z,13.80
2023-01-17T02:27:01.717Z,15.40
2023-01-17T02:29:59.590Z,12.80
2023-01-17T02:32:32.587Z,14.80
2023-01-17T02:35:09.653Z,15.50
2023-01-17T02:37:56.166Z,14.10
2023-01-17T02:40:34.758Z,17.10
2023-01-17T02:43:05.684Z,18.70
2023-01-17T02:45:32.643Z,19.20
2023-01-17T02:47:59.594Z,21.00
2023-01-17T02:50:50.508Z,21.80
2023-01-17T02:53:45.878Z,20.60
2023-01-17T02:56:28.990Z,21.30
2023-01-17T02:59:17.626Z,20.30
2023-01-17T03:02:13.336Z,20.50
2023-01-17T03:04:50.103Z,21.90
2023-01-17T03:07:19.808Z,23.00
2023-01-17T03:09:47.911Z,20.70
2023-01-17T03:12:14.838Z,20.20
2023-01-17T03:14:41.810Z,20.80
2023-01-17T03:17:09.132Z,18.00
2023-01-17T03:19:36.103Z,19.00
2023-01-17T03:22:03.408Z,19.40
2023-01-17T03:24:30.742Z,21.10
2023-01-17T03:26:57.668Z,20.80
2023-01-17T03:29:24.685Z,24.40
2023-01-17T03:31:52.436Z,23.10
2023-01-17T03:34:19.299Z,23.10
2023-01-17T03:36:46.309Z,22.90
2023-01-17T03:39:13.266Z,24.20
2023-01-17T03:41:40.425Z,25.10
2023-01-17T03:44:07.543Z,23.30
2023-01-17T03:46:34.512Z,22.80
2023-01-17T03:49:01.693Z,21.80
2023-01-17T03:51:30.568Z,19.40
2023-01-17T03:54:01.316Z,19.50
2023-01-17T03:56:31.312Z,18.70
2023-01-17T03:59:01.558Z,19.90
2023-01-17T04:01:31.380Z,21.40
2023-01-17T04:04:01.323Z,22.20
2023-01-17T04:06:31.398Z,22.70
2023-01-17T04:09:01.304Z,24.10
2023-01-17T04:11:31.844Z,23.70
2023-01-17T04:14:01.270Z,21.70
2023-01-17T04:16:31.783Z,25.30
2023-01-17T04:19:01.464Z,22.70
2023-01-17T04:21:31.352Z,20.70
2023-01-17T04:24:01.334Z,22.40
2023-01-17T04:26:32.351Z,22.00
2023-01-17T04:29:02.220Z,22.10
2023-01-17T04:31:32.076Z,21.60
2023-01-17T04:34:01.385Z,24.00
2023-01-17T04:36:31.251Z,20.30
2023-01-17T04:39:02.479Z,20.60
2023-01-17T04:41:32.411Z,21.30
2023-01-17T04:44:02.041Z,20.80
2023-01-17T04:46:30.793Z,22.20
2023-01-17T04:49:01.407Z,22.10
2023-01-17T04:59:22.049Z,24.10
2023-01-17T05:01:49.045Z,25.40
2023-01-17T05:04:15.876Z,23.90
2023-01-17T05:06:44.125Z,27.90
2023-01-17T05:09:10.988Z,29.90
2023-01-17T05:11:37.890Z,26.10
2023-01-17T05:14:04.631Z,28.20
2023-01-17T05:16:31.781Z,27.00
2023-01-17T05:18:58.999Z,25.70
2023-01-17T05:21:26.267Z,26.20
2023-01-17T05:23:53.419Z,25.20
2023-01-17T05:26:22.655Z,24.00
2023-01-17T05:28:50.072Z,22.10
2023-01-17T05:31:17.253Z,24.10
2023-01-17T05:33:43.991Z,26.90
2023-01-17T05:36:10.724Z,27.70
2023-01-17T05:38:37.742Z,29.60
2023-01-17T05:41:04.958Z,26.90
2023-01-17T05:43:32.149Z,27.90
2023-01-17T05:45:58.880Z,29.70
2023-01-17T05:48:25.571Z,27.00
2023-01-17T05:50:52.248Z,26.80
2023-01-17T05:53:18.873Z,24.00
2023-01-17T05:55:47.054Z,26.60
2023-01-17T05:58:17.532Z,28.90
2023-01-17T06:00:44.237Z,27.20
2023-01-17T06:03:13.693Z,26.90
2023-01-17T06:05:42.596Z,25.80
2023-01-17T06:08:10.357Z,27.60
2023-01-17T06:10:37.186Z,28.00
2023-01-17T06:13:06.597Z,27.80
2023-01-17T06:15:35.015Z,26.00
2023-01-17T06:18:09.590Z,26.10
2023-01-17T06:20:36.866Z,25.00
2023-01-17T06:23:04.635Z,24.70
2023-01-17T06:25:38.623Z,24.00
2023-01-17T06:28:06.381Z,25.10
2023-01-17T06:30:33.615Z,23.80
2023-01-17T06:33:00.879Z,26.60
2023-01-17T06:35:27.894Z,24.80
2023-01-17T06:37:57.485Z,23.50
2023-01-17T06:40:25.096Z,20.30
2023-01-17T06:42:51.945Z,20.10
2023-01-17T06:45:19.230Z,20.80
2023-01-17T06:47:46.234Z,20.90
2023-01-17T06:50:14.207Z,20.40
2023-01-17T06:52:41.362Z,20.90
2023-01-17T06:55:08.985Z,22.40
2023-01-17T06:57:36.779Z,22.50
2023-01-17T07:00:04.537Z,21.40
2023-01-17T07:02:31.406Z,22.20
2023-01-17T07:04:58.333Z,20.00
2023-01-17T07:07:25.893Z,20.00
2023-01-17T07:09:54.988Z,21.00
2023-01-17T07:12:21.837Z,21.00
2023-01-17T07:14:48.993Z,20.60
2023-01-17T07:17:15.792Z,20.80
2023-01-17T07:19:44.359Z,21.70
2023-01-17T07:22:11.459Z,21.30
2023-01-17T07:24:38.298Z,21.00
2023-01-17T07:27:06.811Z,20.50
2023-01-17T07:29:34.031Z,20.40
2023-01-17T07:32:02.653Z,21.00
2023-01-17T07:34:29.458Z,22.50
2023-01-17T07:36:57.335Z,22.10
2023-01-17T07:39:24.285Z,21.30
2023-01-17T07:41:51.114Z,19.80
2023-01-17T07:44:19.394Z,19.20
2023-01-17T07:46:46.354Z,19.20
2023-01-17T07:49:14.031Z,19.90
2023-01-17T07:51:41.045Z,21.50
2023-01-17T07:54:07.764Z,21.30
2023-01-17T07:56:35.551Z,21.60
2023-01-17T07:59:02.701Z,22.80
2023-01-17T08:01:29.884Z,23.10
2023-01-17T08:04:09.437Z,25.10
2023-01-17T08:14:16.510Z,22.20
2023-01-17T08:16:43.384Z,21.80
2023-01-17T08:19:10.620Z,20.10
2023-01-17T08:21:37.716Z,20.40
2023-01-17T08:24:05.022Z,23.60
2023-01-17T08:26:31.961Z,24.40
2023-01-17T08:29:00.570Z,24.40
2023-01-17T08:31:28.784Z,23.20
2023-01-17T08:33:56.715Z,23.50
2023-01-17T08:36:25.933Z,24.20
2023-01-17T08:38:53.356Z,25.50
2023-01-17T08:41:21.129Z,23.40
2023-01-17T08:43:49.093Z,23.70
2023-01-17T08:46:16.447Z,24.30
2023-01-17T08:48:43.775Z,24.00
2023-01-17T08:51:11.252Z,21.90
2023-01-17T08:53:38.196Z,22.30
2023-01-17T08:56:06.576Z,22.20
2023-01-17T08:58:35.132Z,22.40
2023-01-17T09:01:03.268Z,22.70
2023-01-17T09:03:31.406Z,22.30
2023-01-17T09:06:05.561Z,23.00
2023-01-17T09:08:33.298Z,23.60
2023-01-17T09:11:05.058Z,24.00
2023-01-17T09:13:32.087Z,23.20
2023-01-17T09:15:59.361Z,25.40
2023-01-17T09:18:26.910Z,25.50
2023-01-17T09:20:59.337Z,25.20
2023-01-17T09:23:27.346Z,25.60
2023-01-17T09:25:55.324Z,24.60
2023-01-17T09:28:22.371Z,25.20
2023-01-17T09:30:49.448Z,26.10
2023-01-17T09:33:16.727Z,30.60
2023-01-17T09:35:44.646Z,28.50
2023-01-17T09:38:12.089Z,28.80
2023-01-17T09:40:43.996Z,29.30
2023-01-17T09:43:44.591Z,29.00
2023-01-17T09:46:22.809Z,26.70
2023-01-17T09:49:13.107Z,26.10
2023-01-17T09:51:40.032Z,26.70
2023-01-17T09:54:29.281Z,27.60
2023-01-17T09:57:24.570Z,26.60
2023-01-17T10:00:03.212Z,27.60
2023-01-17T10:02:52.524Z,26.10
2023-01-17T10:05:28.869Z,28.70
2023-01-17T10:08:11.678Z,26.80
2023-01-17T10:10:57.864Z,27.40
2023-01-17T10:13:40.289Z,27.00
2023-01-17T10:16:44.647Z,26.40
2023-01-17T10:19:29.980Z,26.40
2023-01-17T10:22:15.386Z,24.80
2023-01-17T10:25:16.120Z,25.00
2023-01-17T10:27:59.325Z,26.00
2023-01-17T10:30:32.535Z,27.10
2023-01-17T10:32:59.614Z,27.30
2023-01-17T10:35:29.899Z,28.00
2023-01-17T10:37:57.449Z,27.30
2023-01-17T10:40:42.937Z,27.20
2023-01-17T10:43:12.762Z,25.70
2023-01-17T10:45:48.964Z,26.70
2023-01-17T10:48:23.135Z,25.90
2023-01-17T10:50:56.774Z,29.00
2023-01-17T10:56:13.058Z,27.60
2023-01-17T10:58:39.909Z,27.20
2023-01-17T11:01:13.295Z,27.00
2023-01-17T11:06:20.814Z,27.90
2023-01-17T11:08:58.195Z,27.30
2023-01-17T11:11:30.236Z,30.40
2023-01-17T11:13:58.230Z,30.50
2023-01-17T11:16:27.548Z,29.40
2023-01-17T11:19:08.746Z,28.40
2023-01-17T11:21:37.567Z,27.40
2023-01-17T11:24:12.256Z,28.70
2023-01-17T11:26:39.274Z,26.50
2023-01-17T11:29:31.265Z,26.50
2023-01-17T11:31:58.465Z,27.00
2023-01-17T11:34:27.023Z,27.00
2023-01-17T11:37:19.578Z,28.70
2023-01-17T11:39:48.353Z,27.10
2023-01-17T11:42:33.771Z,28.40
2023-01-17T11:45:26.940Z,27.90
2023-01-17T11:48:09.343Z,25.80
2023-01-17T11:50:37.780Z,29.00
2023-01-17T11:53:28.149Z,26.30
2023-01-17T11:56:21.439Z,26.90
2023-01-17T11:58:48.431Z,27.50
2023-01-17T12:01:47.895Z,26.40
2023-01-17T12:04:24.887Z,27.70
2023-01-17T12:07:15.011Z,27.10
2023-01-17T12:09:54.757Z,27.40
2023-01-17T12:12:47.593Z,26.50
2023-01-17T12:15:23.612Z,25.70
2023-01-17T12:17:53.453Z,26.80
2023-01-17T12:20:53.210Z,28.20
2023-01-17T12:23:37.207Z,27.60
2023-01-17T12:26:19.924Z,26.30
2023-01-17T12:28:57.413Z,25.70
2023-01-17T12:31:52.606Z,25.90
2023-01-17T12:34:26.224Z,28.10
2023-01-17T12:39:26.159Z,24.70
2023-01-17T12:41:58.510Z,24.40
2023-01-17T12:44:47.270Z,24.60
2023-01-17T12:47:14.076Z,25.30
2023-01-17T12:50:03.378Z,25.80
2023-01-17T12:52:59.501Z,26.40
2023-01-17T12:55:29.887Z,27.20
2023-01-17T12:57:57.660Z,28.00
2023-01-17T13:00:25.673Z,26.90
2023-01-17T13:03:04.855Z,25.70
2023-01-17T13:05:33.285Z,25.20
2023-01-17T13:08:06.781Z,27.50
2023-01-17T13:13:20.344Z,25.00
2023-01-17T13:15:47.313Z,24.20
2023-01-17T13:18:15.861Z,24.40
2023-01-17T13:21:06.784Z,25.10
2023-01-17T13:23:42.844Z,24.10
2023-01-17T13:26:18.077Z,23.30
2023-01-17T13:29:06.130Z,24.00
2023-01-17T13:31:48.436Z,24.10
2023-01-17T13:34:29.521Z,23.40
2023-01-17T13:37:22.651Z,23.90
2023-01-17T13:40:23.738Z,22.80
2023-01-17T13:43:01.158Z,23.60
2023-01-17T13:45:33.471Z,22.60
2023-01-17T13:48:12.793Z,23.50
2023-01-17T13:50:55.676Z,25.30
2023-01-17T13:53:28.715Z,24.40
2023-01-17T13:56:18.095Z,24.50
2023-01-17T13:58:50.055Z,24.50
2023-01-17T14:01:23.242Z,26.10
2023-01-17T14:06:36.158Z,26.00
2023-01-17T14:09:18.539Z,24.10
2023-01-17T14:12:05.190Z,24.60
2023-01-17T14:14:44.565Z,24.80
2023-01-17T14:17:18.023Z,25.80
2023-01-17T14:19:52.255Z,25.00
2023-01-17T14:22:19.225Z,24.50
2023-01-17T14:25:12.256Z,24.50
2023-01-17T14:28:52.602Z,23.80
2023-01-17T14:38:59.492Z,22.60
2023-01-17T14:41:28.007Z,23.30
2023-01-17T14:43:55.166Z,23.60
2023-01-17T14:46:32.400Z,22.80
2023-01-17T14:49:19.368Z,24.40
2023-01-17T14:52:01.931Z,24.30
2023-01-17T14:54:28.991Z,22.20
2023-01-17T14:57:22.064Z,25.80
2023-01-17T14:59:49.052Z,26.70
2023-01-17T15:02:16.662Z,24.60
2023-01-17T15:04:44.146Z,27.30
2023-01-17T15:07:15.901Z,27.80
2023-01-17T15:09:43.050Z,29.80
2023-01-17T15:12:11.146Z,29.70
2023-01-17T15:14:39.361Z,30.50
2023-01-17T15:17:18.732Z,31.20
2023-01-17T15:19:49.775Z,29.50
2023-01-17T15:22:16.722Z,30.20
2023-01-17T15:24:44.730Z,29.50
2023-01-17T15:27:14.018Z,28.00
2023-01-17T15:29:41.038Z,30.60
2023-01-17T15:32:07.978Z,30.80
2023-01-17T15:34:36.689Z,28.80
2023-01-17T15:37:08.631Z,26.10
2023-01-17T15:39:37.592Z,26.30
2023-01-17T15:42:15.115Z,27.60
2023-01-17T15:44:48.683Z,24.70
2023-01-17T15:47:38.073Z,24.70
2023-01-17T15:50:21.012Z,23.40
2023-01-17T15:52:49.453Z,22.70
2023-01-17T15:55:24.535Z,25.20
2023-01-17T15:57:51.430Z,24.50
2023-01-17T16:00:37.823Z,25.30
2023-01-17T16:03:36.260Z,23.70
2023-01-17T16:06:04.670Z,24.60
2023-01-17T16:08:39.999Z,24.80
2023-01-17T16:11:08.111Z,24.60
2023-01-17T16:13:39.316Z,33.60
2023-01-17T16:16:31.248Z,23.80
2023-01-17T16:21:29.614Z,23.60
2023-01-17T16:23:56.687Z,23.40
2023-01-17T16:26:23.773Z,22.10
2023-01-17T16:28:51.430Z,21.30
2023-01-17T16:31:18.399Z,21.90
2023-01-17T16:33:46.189Z,22.70
2023-01-17T16:36:14.946Z,20.40
2023-01-17T16:38:43.564Z,19.90
2023-01-17T16:41:10.761Z,20.90
2023-01-17T16:43:37.640Z,20.40
2023-01-17T16:46:04.556Z,20.20
2023-01-17T16:48:31.365Z,20.60
2023-01-17T16:50:59.398Z,20.40
2023-01-17T16:53:27.320Z,21.00
2023-01-17T16:55:56.811Z,19.80
2023-01-17T16:58:23.735Z,18.90
2023-01-17T17:00:50.604Z,19.30
2023-01-17T17:03:18.446Z,19.20
2023-01-17T17:05:47.291Z,19.10
2023-01-17T17:08:15.597Z,19.50
2023-01-17T17:10:42.430Z,19.30
2023-01-17T17:13:09.310Z,18.90
2023-01-17T17:15:41.196Z,19.10
2023-01-17T17:18:12.970Z,20.00
2023-01-17T17:20:39.804Z,19.70
2023-01-17T17:23:06.581Z,20.20
2023-01-17T17:25:33.412Z,21.20
2023-01-17T17:28:00.197Z,20.00
2023-01-17T17:30:27.433Z,19.30
2023-01-17T17:32:54.210Z,19.40
2023-01-17T17:35:21.011Z,18.90
2023-01-17T17:37:47.832Z,19.20
2023-01-17T17:40:14.927Z,18.90
2023-01-17T17:42:42.802Z,20.90
2023-01-17T17:45:10.176Z,21.90
2023-01-17T17:47:37.098Z,22.20
2023-01-17T17:50:04.202Z,21.80
2023-01-17T17:52:37.799Z,20.10
2023-01-17T17:55:05.086Z,18.80
2023-01-17T17:57:32.209Z,20.20
2023-01-17T17:59:59.855Z,19.10
2023-01-17T18:02:26.756Z,19.20
2023-01-17T18:04:53.811Z,19.10
2023-01-17T18:07:21.510Z,18.80
2023-01-17T18:09:50.158Z,19.00
2023-01-17T18:12:17.864Z,18.20
2023-01-17T18:14:44.783Z,19.20
2023-01-17T18:17:15.203Z,21.00
2023-01-17T18:19:43.062Z,21.30
2023-01-17T18:22:10.144Z,21.00
2023-01-17T18:24:38.601Z,19.70
2023-01-17T18:27:06.966Z,19.50
2023-01-17T18:29:35.464Z,19.90
2023-01-17T18:32:03.111Z,18.60
2023-01-17T18:34:30.107Z,18.50
2023-01-17T18:36:57.706Z,19.70
2023-01-17T18:39:29.183Z,19.90
2023-01-17T18:42:23.445Z,19.30
2023-01-17T18:44:54.995Z,18.90
2023-01-17T18:47:31.123Z,18.70
2023-01-17T18:49:59.181Z,18.50
2023-01-17T18:52:27.513Z,20.20
2023-01-17T18:54:57.113Z,18.70
2023-01-17T18:57:27.523Z,20.40
2023-01-17T19:00:03.997Z,18.60
2023-01-17T19:02:31.258Z,18.20
2023-01-17T19:04:58.164Z,18.80
2023-01-17T19:07:31.596Z,19.30
2023-01-17T19:09:58.392Z,18.50
2023-01-17T19:12:25.375Z,19.40
2023-01-17T19:14:52.431Z,20.10
2023-01-17T19:17:19.876Z,19.90
2023-01-17T19:19:46.688Z,18.50
2023-01-17T19:22:13.884Z,20.00
2023-01-17T19:24:40.825Z,19.80
2023-01-17T19:27:07.753Z,18.50
2023-01-17T19:29:34.593Z,19.50
2023-01-17T19:32:01.639Z,18.40
2023-01-17T19:34:28.428Z,19.10
2023-01-17T19:36:56.352Z,19.00
2023-01-17T19:39:25.710Z,20.30
2023-01-17T19:41:52.543Z,18.80
2023-01-17T19:44:19.328Z,19.10
2023-01-17T19:46:47.206Z,18.10
2023-01-17T19:49:19.795Z,18.70
2023-01-17T19:51:46.856Z,19.10
2023-01-17T19:54:15.425Z,18.60
2023-01-17T19:56:42.430Z,19.60
2023-01-17T19:59:09.361Z,19.70
2023-01-17T20:01:36.532Z,18.40
2023-01-17T20:04:05.120Z,19.60
2023-01-17T20:06:35.020Z,18.10
2023-01-17T20:09:02.923Z,19.10
2023-01-17T20:11:30.185Z,19.70
2023-01-17T20:13:59.150Z,19.90
2023-01-17T20:16:27.994Z,20.10
2023-01-17T20:18:55.077Z,19.70
2023-01-17T20:21:23.571Z,20.30
2023-01-17T20:23:52.715Z,20.00
2023-01-17T20:26:21.720Z,20.10
2023-01-17T20:28:50.036Z,19.60
2023-01-17T20:31:25.089Z,18.50
2023-01-17T20:33:56.132Z,20.10
2023-01-17T20:36:25.641Z,18.60
2023-01-17T20:38:54.955Z,19.90
2023-01-17T20:41:26.612Z,19.60
2023-01-17T20:43:55.206Z,17.90
2023-01-17T20:46:24.234Z,19.70
2023-01-17T20:48:52.919Z,18.90
2023-01-17T20:51:21.089Z,19.70
2023-01-17T20:53:51.568Z,19.20
2023-01-17T20:56:19.019Z,22.00
2023-01-17T20:58:45.880Z,32.90
2023-01-17T21:01:20.072Z,24.20
2023-01-17T21:03:51.216Z,18.90
2023-01-17T21:06:18.334Z,20.70
2023-01-17T21:08:45.736Z,19.30
2023-01-17T21:11:15.363Z,18.10
2023-01-17T21:13:42.605Z,17.70
2023-01-17T21:16:10.603Z,17.90
2023-01-17T21:18:37.470Z,17.50
2023-01-17T21:21:09.543Z,17.70
2023-01-17T21:23:38.567Z,17.20
2023-01-17T21:26:06.625Z,17.30
2023-01-17T21:28:38.833Z,18.10
2023-01-17T21:31:23.512Z,17.90
2023-01-17T21:40:06.096Z,16.00
2023-01-17T21:42:33.246Z,16.00
2023-01-17T21:45:01.001Z,16.20
2023-01-17T21:47:29.180Z,16.30
2023-01-17T21:49:56.293Z,16.50
2023-01-17T21:52:23.198Z,15.80
2023-01-17T21:55:09.015Z,16.40
2023-01-17T21:57:55.280Z,16.70
2023-01-17T22:00:23.428Z,15.80
2023-01-17T22:02:50.553Z,16.80
2023-01-17T22:05:18.714Z,16.40
2023-01-17T22:08:05.493Z,15.90
2023-01-17T22:10:33.227Z,16.70
2023-01-17T22:13:00.111Z,17.00
2023-01-17T22:15:26.987Z,16.90
2023-01-17T22:17:53.844Z,16.20
2023-01-17T22:20:21.990Z,16.50
2023-01-17T22:22:49.372Z,16.40
2023-01-17T22:25:16.523Z,21.90
2023-01-17T22:27:43.384Z,47.50
2023-01-17T22:30:13.179Z,26.20
2023-01-17T22:32:40.096Z,30.90
2023-01-17T22:35:07.401Z,29.80
2023-01-17T22:37:34.903Z,26.60
2023-01-17T22:40:04.887Z,25.80
2023-01-17T22:42:34.967Z,24.50
2023-01-17T22:45:08.298Z,22.80
2023-01-17T22:50:06.026Z,23.40
2023-01-17T22:52:35.915Z,22.80
2023-01-17T22:55:28.131Z,21.00
2023-01-17T22:58:02.336Z,19.70
2023-01-17T23:00:40.334Z,20.20
2023-01-17T23:03:10.408Z,19.90
2023-01-17T23:05:46.654Z,18.30
2023-01-17T23:08:15.065Z,18.20
2023-01-17T23:11:01.279Z,17.90
2023-01-17T23:13:28.606Z,18.50
2023-01-17T23:16:14.125Z,17.30
2023-01-17T23:19:00.109Z,17.10
2023-01-17T23:21:47.216Z,16.70
2023-01-17T23:24:14.446Z,16.80
2023-01-17T23:27:01.149Z,17.30
2023-01-17T23:29:28.209Z,17.10
2023-01-17T23:31:55.460Z,16.30
2023-01-17T23:34:22.377Z,17.40
2023-01-17T23:36:49.363Z,17.30
2023-01-17T23:39:16.085Z,16.30
2023-01-17T23:42:02.626Z,17.90
2023-01-17T23:44:32.306Z,17.70
2023-01-17T23:47:00.258Z,18.60
2023-01-17T23:49:29.646Z,17.00
2023-01-17T23:51:56.545Z,17.60
2023-01-17T23:54:23.321Z,18.20
2023-01-17T23:56:50.379Z,17.40
